Time;durP1;ratioP1;P1;durP2;ratioP2;P2;SDS_P1;SDS_P2;PMS_P1;PMS_P2;Temp;Humidity;BMP_temperature;BMP_pressure;BME280_temperature;BME280_humidity;BME280_pressure;Samples;Min_cycle;Max_cycle;Signal;HPM_P1;HPM_P2
2022/11/14 00:00:44;;;;;;;32.65;16.40;;;;;;;;;;5011415;28;20365;-76
2022/11/14 00:03:10;;;;;;;31.48;16.63;;;;;;;;;;5012845;28;20088;-76
2022/11/14 00:05:41;;;;;;;32.05;16.98;;;;;;;;;;5012689;28;20026;-76
2022/11/14 00:08:11;;;;;;;33.28;16.15;;;;;;;;;;5012857;28;20029;-76
2022/11/14 00:10:37;;;;;;;33.38;16.13;;;;;;;;;;5012656;28;20033;-76
2022/11/14 00:13:03;;;;;;;31.73;16.90;;;;;;;;;;5012868;28;20029;-76
2022/11/14 00:15:29;;;;;;;34.08;17.38;;;;;;;;;;5012676;28;20026;-76
2022/11/14 00:17:55;;;;;;;32.63;18.27;;;;;;;;;;5012600;28;20419;-76
2022/11/14 00:20:21;;;;;;;36.80;18.58;;;;;;;;;;5013567;28;20469;-76
2022/11/14 00:22:47;;;;;;;35.97;18.67;;;;;;;;;;5016490;28;20461;-76
2022/11/14 00:25:13;;;;;;;37.83;18.73;;;;;;;;;;5016351;28;20037;-76
2022/11/14 00:27:39;;;;;;;40.28;19.83;;;;;;;;;;5016731;28;20030;-76
2022/11/14 00:30:06;;;;;;;34.05;18.80;;;;;;;;;;5015442;28;20029;-76
2022/11/14 00:32:32;;;;;;;40.15;19.38;;;;;;;;;;5035963;28;20025;-76
2022/11/14 00:34:58;;;;;;;41.53;20.58;;;;;;;;;;5035883;28;20057;-76
2022/11/14 00:37:24;;;;;;;39.70;20.08;;;;;;;;;;5036147;28;20053;-76
2022/11/14 00:39:50;;;;;;;40.63;20.77;;;;;;;;;;5018255;28;20025;-76
2022/11/14 00:42:16;;;;;;;42.28;20.60;;;;;;;;;;5017441;28;20041;-76
2022/11/14 00:44:42;;;;;;;41.28;20.40;;;;;;;;;;5034665;28;20495;-76
2022/11/14 00:47:08;;;;;;;38.25;20.30;;;;;;;;;;5016976;28;20472;-76
2022/11/14 00:49:34;;;;;;;42.40;22.38;;;;;;;;;;5016905;28;20091;-76
2022/11/14 00:52:00;;;;;;;42.10;21.02;;;;;;;;;;5034683;28;20389;-76
2022/11/14 00:54:27;;;;;;;42.08;21.27;;;;;;;;;;5034052;28;20087;-76
2022/11/14 00:56:53;;;;;;;49.92;22.88;;;;;;;;;;5034484;28;20025;-76
2022/11/14 00:59:19;;;;;;;49.25;22.83;;;;;;;;;;5017197;28;20053;-76
2022/11/14 01:01:45;;;;;;;43.83;21.80;;;;;;;;;;5016753;28;20022;-76
2022/11/14 01:04:11;;;;;;;51.67;22.67;;;;;;;;;;5016879;28;20041;-76
2022/11/14 01:06:37;;;;;;;46.67;22.95;;;;;;;;;;5034202;28;20026;-76
2022/11/14 01:09:03;;;;;;;47.65;23.33;;;;;;;;;;5016862;28;20021;-76
2022/11/14 01:11:29;;;;;;;51.67;26.50;;;;;;;;;;5016456;28;20030;-76
2022/11/14 01:13:55;;;;;;;45.58;23.80;;;;;;;;;;5034180;28;20026;-76
2022/11/14 01:16:21;;;;;;;46.90;23.27;;;;;;;;;;5034372;28;20022;-76
2022/11/14 01:18:47;;;;;;;49.72;23.63;;;;;;;;;;5034272;28;20057;-76
2022/11/14 01:21:13;;;;;;;48.63;24.30;;;;;;;;;;5034262;28;20384;-76
2022/11/14 01:23:40;;;;;;;46.55;23.02;;;;;;;;;;5033874;28;20025;-76
2022/11/14 01:26:07;;;;;;;44.05;22.70;;;;;;;;;;5034160;28;20025;-76
2022/11/14 01:28:34;;;;;;;48.72;22.65;;;;;;;;;;5033939;28;20025;-76
2022/11/14 01:31:10;;;;;;;50.65;23.58;;;;;;;;;;5033377;28;20022;-76
2022/11/14 01:33:36;;;;;;;54.60;24.10;;;;;;;;;;5033843;28;20022;-76
2022/11/14 01:36:02;;;;;;;55.03;25.60;;;;;;;;;;5033813;28;20045;-76
2022/11/14 01:38:28;;;;;;;53.75;25.95;;;;;;;;;;5033939;28;20052;-76
2022/11/14 01:40:54;;;;;;;49.15;24.77;;;;;;;;;;5031626;28;20113;-76
2022/11/14 01:43:25;;;;;;;53.95;25.23;;;;;;;;;;4990922;28;1141525;-76
2022/11/14 01:45:53;;;;;;;53.75;26.08;;;;;;;;;;5034729;28;20060;-76
2022/11/14 01:48:38;;;;;;;54.08;24.05;;;;;;;;;;5015311;28;20025;-76
2022/11/14 01:51:43;;;;;;;59.28;26.05;;;;;;;;;;5034628;28;20037;-76
2022/11/14 01:54:12;;;;;;;59.22;25.92;;;;;;;;;;4954278;29;20114;-76
2022/11/14 01:56:41;;;;;;;54.28;26.23;;;;;;;;;;4954463;29;20090;-76
2022/11/14 01:59:09;;;;;;;56.33;26.05;;;;;;;;;;4993011;28;20033;-76
2022/11/14 02:01:36;;;;;;;57.70;26.45;;;;;;;;;;4997309;28;20022;-76
2022/11/14 02:04:04;;;;;;;59.90;27.48;;;;;;;;;;4997047;28;20037;-76
2022/11/14 02:06:30;;;;;;;61.30;27.50;;;;;;;;;;5014570;28;20064;-76
2022/11/14 02:08:58;;;;;;;62.08;27.35;;;;;;;;;;5014735;28;20100;-76
2022/11/14 02:11:24;;;;;;;56.55;26.90;;;;;;;;;;5014434;28;20477;-76
2022/11/14 02:13:50;;;;;;;62.20;27.70;;;;;;;;;;5014501;28;20036;-76
2022/11/14 02:16:16;;;;;;;56.05;26.00;;;;;;;;;;4996942;28;20025;-76
2022/11/14 02:18:43;;;;;;;60.08;26.08;;;;;;;;;;5014642;28;20026;-76
2022/11/14 02:21:09;;;;;;;57.13;27.17;;;;;;;;;;5014169;28;20030;-76
2022/11/14 02:23:35;;;;;;;61.70;27.48;;;;;;;;;;5014182;28;20101;-76
2022/11/14 02:26:01;;;;;;;57.20;25.33;;;;;;;;;;5014218;28;20040;-76
2022/11/14 02:28:27;;;;;;;61.58;27.67;;;;;;;;;;5013942;28;20030;-76
2022/11/14 02:30:53;;;;;;;61.83;27.38;;;;;;;;;;4996558;28;20029;-76
2022/11/14 02:33:20;;;;;;;60.47;28.10;;;;;;;;;;5013891;28;20045;-76
2022/11/14 02:35:46;;;;;;;59.97;27.15;;;;;;;;;;5017638;28;20028;-76
2022/11/14 02:38:12;;;;;;;66.47;28.90;;;;;;;;;;5033722;28;20092;-76
2022/11/14 02:40:38;;;;;;;56.20;26.77;;;;;;;;;;5032508;28;20021;-76
2022/11/14 02:43:04;;;;;;;60.28;26.08;;;;;;;;;;5029103;28;20042;-76
2022/11/14 02:45:30;;;;;;;65.15;28.45;;;;;;;;;;5014128;28;20393;-76
2022/11/14 02:47:56;;;;;;;60.67;26.95;;;;;;;;;;5014932;28;20461;-76
2022/11/14 02:50:22;;;;;;;62.78;26.98;;;;;;;;;;4995846;28;20483;-76
2022/11/14 02:52:48;;;;;;;57.38;26.70;;;;;;;;;;5013766;28;20412;-76
2022/11/14 02:55:14;;;;;;;68.07;29.25;;;;;;;;;;4996008;28;20120;-76
2022/11/14 02:57:40;;;;;;;63.10;28.48;;;;;;;;;;4996006;28;20064;-76
2022/11/14 03:00:06;;;;;;;63.15;27.77;;;;;;;;;;5023023;28;20362;-76
2022/11/14 03:02:33;;;;;;;64.47;28.70;;;;;;;;;;5033312;28;20036;-76
2022/11/14 03:04:59;;;;;;;63.47;26.65;;;;;;;;;;5033535;28;20030;-76
2022/11/14 03:07:25;;;;;;;64.53;29.17;;;;;;;;;;5015798;28;20033;-76
2022/11/14 03:09:51;;;;;;;64.60;27.27;;;;;;;;;;5033311;28;20097;-76
2022/11/14 03:12:17;;;;;;;65.10;27.40;;;;;;;;;;5033169;28;20117;-76
2022/11/14 03:14:44;;;;;;;66.18;28.70;;;;;;;;;;5033167;28;20021;-76
2022/11/14 03:17:10;;;;;;;59.03;26.05;;;;;;;;;;5033098;28;20095;-76
2022/11/14 03:19:36;;;;;;;60.97;26.58;;;;;;;;;;5015465;28;20391;-76
2022/11/14 03:22:02;;;;;;;65.63;29.20;;;;;;;;;;5032990;28;20452;-76
2022/11/14 03:24:28;;;;;;;64.72;26.50;;;;;;;;;;5015874;28;20025;-76
2022/11/14 03:26:54;;;;;;;66.70;27.98;;;;;;;;;;5032800;28;20041;-77
2022/11/14 03:29:20;;;;;;;72.80;29.33;;;;;;;;;;5032895;28;20030;-76
2022/11/14 03:31:46;;;;;;;72.13;29.08;;;;;;;;;;5032806;28;20076;-76
2022/11/14 03:34:13;;;;;;;72.18;28.42;;;;;;;;;;5032775;28;20112;-76
2022/11/14 03:36:39;;;;;;;70.70;28.90;;;;;;;;;;5032838;28;20025;-76
2022/11/14 03:39:05;;;;;;;69.10;28.85;;;;;;;;;;5032845;28;20060;-76
2022/11/14 03:41:31;;;;;;;64.60;27.05;;;;;;;;;;5014392;28;20100;-76
2022/11/14 03:43:57;;;;;;;64.53;26.73;;;;;;;;;;5032256;28;20053;-77
2022/11/14 03:46:23;;;;;;;68.95;29.08;;;;;;;;;;5015111;28;20034;-76
2022/11/14 03:48:49;;;;;;;73.72;28.45;;;;;;;;;;5032524;28;20045;-76
2022/11/14 03:51:15;;;;;;;68.50;29.25;;;;;;;;;;5032608;28;20087;-76
2022/11/14 03:53:41;;;;;;;75.93;28.95;;;;;;;;;;5032442;28;20028;-76
2022/11/14 03:56:07;;;;;;;64.97;27.75;;;;;;;;;;5032446;28;20468;-76
2022/11/14 03:58:33;;;;;;;64.30;27.27;;;;;;;;;;5032633;28;20033;-76
2022/11/14 04:00:59;;;;;;;69.55;27.70;;;;;;;;;;4997609;28;20053;-76
2022/11/14 04:03:25;;;;;;;64.30;27.40;;;;;;;;;;5012870;28;20024;-76
2022/11/14 04:05:51;;;;;;;68.82;27.95;;;;;;;;;;5012851;28;20037;-76
2022/11/14 04:08:17;;;;;;;62.42;26.80;;;;;;;;;;5012885;28;20496;-76
2022/11/14 04:10:46;;;;;;;67.22;26.90;;;;;;;;;;5012852;28;20030;-76
2022/11/14 04:13:12;;;;;;;68.90;28.15;;;;;;;;;;5012473;28;20025;-76
2022/11/14 04:15:38;;;;;;;69.72;27.70;;;;;;;;;;5012685;28;20136;-76
2022/11/14 04:18:05;;;;;;;70.57;27.45;;;;;;;;;;5012605;28;20053;-76
2022/11/14 04:20:31;;;;;;;66.22;26.75;;;;;;;;;;5012707;28;20053;-76
2022/11/14 04:22:57;;;;;;;68.63;27.52;;;;;;;;;;5012365;28;20030;-76
2022/11/14 04:25:23;;;;;;;70.55;27.92;;;;;;;;;;5012614;28;20030;-76
2022/11/14 04:27:49;;;;;;;66.22;26.83;;;;;;;;;;5012026;28;20026;-76
2022/11/14 04:30:15;;;;;;;68.15;26.48;;;;;;;;;;5014329;28;20053;-76
2022/11/14 04:32:41;;;;;;;59.13;25.52;;;;;;;;;;5032101;28;20030;-76
2022/11/14 04:35:07;;;;;;;62.17;26.33;;;;;;;;;;5031912;28;20384;-76
2022/11/14 04:37:33;;;;;;;68.00;26.40;;;;;;;;;;5032154;28;20029;-76
2022/11/14 04:40:01;;;;;;;61.83;24.98;;;;;;;;;;5032234;28;20079;-76
2022/11/14 04:42:27;;;;;;;60.70;26.38;;;;;;;;;;5017269;28;20667;-76
2022/11/14 04:44:53;;;;;;;63.80;27.27;;;;;;;;;;5029659;28;20447;-76
2022/11/14 04:47:19;;;;;;;62.90;25.50;;;;;;;;;;5005741;28;20639;-76
2022/11/14 04:49:45;;;;;;;63.92;27.45;;;;;;;;;;5011714;28;20076;-76
2022/11/14 04:52:11;;;;;;;60.78;25.90;;;;;;;;;;5011800;28;20034;-76
2022/11/14 04:54:37;;;;;;;65.53;26.05;;;;;;;;;;4998088;28;20057;-76
2022/11/14 04:57:03;;;;;;;62.70;24.15;;;;;;;;;;5051546;28;20033;-76
2022/11/14 04:59:29;;;;;;;57.83;24.20;;;;;;;;;;5044542;28;20048;-76
2022/11/14 05:01:55;;;;;;;67.05;25.42;;;;;;;;;;5031507;28;20030;-76
2022/11/14 05:04:21;;;;;;;61.00;24.42;;;;;;;;;;5031179;28;20042;-76
2022/11/14 05:06:47;;;;;;;61.92;24.90;;;;;;;;;;5016692;28;20463;-76
2022/11/14 05:09:14;;;;;;;57.42;24.60;;;;;;;;;;5034882;28;20041;-76
2022/11/14 05:11:40;;;;;;;61.85;24.77;;;;;;;;;;5035121;28;20040;-77
2022/11/14 05:14:06;;;;;;;54.08;22.95;;;;;;;;;;5016956;28;20116;-76
2022/11/14 05:16:32;;;;;;;58.70;23.30;;;;;;;;;;5017446;28;20038;-76
2022/11/14 05:18:58;;;;;;;57.35;23.13;;;;;;;;;;5035318;28;20025;-76
2022/11/14 05:21:24;;;;;;;64.15;24.60;;;;;;;;;;5035314;28;20036;-76
2022/11/14 05:23:50;;;;;;;56.92;23.92;;;;;;;;;;5017425;28;20032;-76
2022/11/14 05:26:17;;;;;;;54.70;23.67;;;;;;;;;;5017648;28;20025;-76
2022/11/14 05:28:43;;;;;;;59.83;23.90;;;;;;;;;;5035227;28;20033;-76
2022/11/14 05:31:14;;;;;;;55.25;24.17;;;;;;;;;;5024157;28;20049;-76
2022/11/14 05:33:40;;;;;;;67.93;25.05;;;;;;;;;;5015438;28;20037;-76
2022/11/14 05:36:10;;;;;;;53.42;23.30;;;;;;;;;;5015120;28;20068;-76
2022/11/14 05:38:36;;;;;;;55.15;24.27;;;;;;;;;;5015488;28;20014;-76
2022/11/14 05:41:10;;;;;;;58.85;23.40;;;;;;;;;;5015422;28;20053;-76
2022/11/14 05:43:36;;;;;;;57.40;24.38;;;;;;;;;;5024632;28;20059;-76
2022/11/14 05:46:03;;;;;;;54.03;22.92;;;;;;;;;;5035148;28;20037;-76
2022/11/14 05:48:29;;;;;;;60.42;23.98;;;;;;;;;;5034868;28;20021;-76
2022/11/14 05:51:01;;;;;;;52.33;21.85;;;;;;;;;;5016889;28;20026;-76
2022/11/14 05:53:28;;;;;;;55.42;23.58;;;;;;;;;;5017257;28;20025;-76
2022/11/14 05:55:54;;;;;;;54.95;22.23;;;;;;;;;;5034678;28;20037;-76
2022/11/14 05:58:20;;;;;;;57.00;23.80;;;;;;;;;;5019261;28;20018;-76
2022/11/14 06:00:46;;;;;;;50.83;22.27;;;;;;;;;;5005339;28;20034;-76
2022/11/14 06:03:13;;;;;;;55.05;22.77;;;;;;;;;;5024711;28;20017;-76
2022/11/14 06:05:40;;;;;;;55.83;23.80;;;;;;;;;;5031862;28;20379;-76
2022/11/14 06:08:06;;;;;;;61.75;25.02;;;;;;;;;;5020280;28;20037;-76
2022/11/14 06:10:34;;;;;;;50.17;22.80;;;;;;;;;;5014599;28;20030;-76
2022/11/14 06:13:00;;;;;;;54.70;22.10;;;;;;;;;;5030728;28;20026;-76
2022/11/14 06:15:26;;;;;;;56.53;22.88;;;;;;;;;;4988846;28;20048;-76
2022/11/14 06:17:56;;;;;;;51.28;21.25;;;;;;;;;;5014953;28;20030;-76
2022/11/14 06:20:22;;;;;;;56.38;21.88;;;;;;;;;;5031340;28;20018;-76
2022/11/14 06:22:48;;;;;;;56.20;21.95;;;;;;;;;;5023354;28;20129;-77
2022/11/14 06:25:14;;;;;;;51.47;21.77;;;;;;;;;;5016021;28;20110;-76
2022/11/14 06:27:40;;;;;;;54.13;22.52;;;;;;;;;;5024915;28;20053;-76
2022/11/14 06:30:07;;;;;;;53.15;21.75;;;;;;;;;;5034127;28;20119;-76
2022/11/14 06:32:33;;;;;;;57.35;21.90;;;;;;;;;;5034022;28;20029;-76
2022/11/14 06:34:59;;;;;;;49.55;21.67;;;;;;;;;;5028740;28;20041;-76
2022/11/14 06:37:25;;;;;;;53.22;22.55;;;;;;;;;;4999344;28;20065;-76
2022/11/14 06:39:51;;;;;;;54.08;21.02;;;;;;;;;;5031817;28;20073;-76
2022/11/14 06:42:17;;;;;;;57.70;22.38;;;;;;;;;;5034322;28;20053;-76
2022/11/14 06:44:43;;;;;;;55.10;22.67;;;;;;;;;;5034690;28;20573;-76
2022/11/14 06:47:09;;;;;;;52.72;21.65;;;;;;;;;;5030169;28;20044;-78
2022/11/14 06:49:35;;;;;;;51.88;21.60;;;;;;;;;;5031651;28;20029;-77
2022/11/14 06:52:01;;;;;;;52.42;20.92;;;;;;;;;;5004766;28;20112;-76
2022/11/14 06:54:27;;;;;;;52.72;22.60;;;;;;;;;;5004116;28;20827;-77
2022/11/14 06:56:53;;;;;;;55.63;22.85;;;;;;;;;;5000066;28;20065;-77
2022/11/14 06:59:19;;;;;;;52.22;22.02;;;;;;;;;;5008753;28;20060;-77
2022/11/14 07:01:45;;;;;;;55.28;22.50;;;;;;;;;;5019829;28;20025;-77
2022/11/14 07:04:11;;;;;;;60.60;21.95;;;;;;;;;;5030141;28;20037;-77
2022/11/14 07:06:37;;;;;;;53.80;23.10;;;;;;;;;;5018470;28;20025;-76
2022/11/14 07:09:04;;;;;;;51.60;22.48;;;;;;;;;;5020673;28;20028;-77
2022/11/14 07:11:30;;;;;;;57.80;21.95;;;;;;;;;;5023786;28;20416;-76
2022/11/14 07:14:00;;;;;;;56.80;22.55;;;;;;;;;;5030493;28;20029;-77
2022/11/14 07:16:30;;;;;;;58.22;22.48;;;;;;;;;;5033001;28;20021;-76
2022/11/14 07:18:57;;;;;;;51.67;21.33;;;;;;;;;;5033037;28;20097;-77
2022/11/14 07:21:23;;;;;;;47.38;20.50;;;;;;;;;;5033163;28;20038;-77
2022/11/14 07:23:49;;;;;;;49.88;21.23;;;;;;;;;;5015021;28;20065;-76
2022/11/14 07:26:15;;;;;;;47.95;21.33;;;;;;;;;;5015501;28;20029;-77
2022/11/14 07:28:42;;;;;;;51.85;22.35;;;;;;;;;;5032709;28;20022;-77
2022/11/14 07:31:11;;;;;;;53.58;22.40;;;;;;;;;;5021895;28;20022;-77
2022/11/14 07:33:37;;;;;;;52.47;21.08;;;;;;;;;;5013540;28;20033;-77
2022/11/14 07:36:03;;;;;;;52.80;21.75;;;;;;;;;;5012795;28;20113;-77
2022/11/14 07:38:30;;;;;;;52.13;21.33;;;;;;;;;;5012761;28;20021;-76
2022/11/14 07:40:57;;;;;;;56.33;23.10;;;;;;;;;;5015077;28;20049;-77
2022/11/14 07:43:24;;;;;;;48.35;21.80;;;;;;;;;;5032532;28;20503;-76
2022/11/14 07:45:50;;;;;;;53.10;22.33;;;;;;;;;;5032673;28;20029;-76
2022/11/14 07:48:16;;;;;;;48.13;21.30;;;;;;;;;;5032384;28;20537;-76
2022/11/14 07:50:43;;;;;;;44.92;20.60;;;;;;;;;;5032401;28;20056;-76
2022/11/14 07:53:09;;;;;;;48.83;20.17;;;;;;;;;;5032373;28;20387;-77
2022/11/14 07:55:35;;;;;;;47.10;20.63;;;;;;;;;;5014801;28;20456;-77
2022/11/14 07:58:01;;;;;;;46.67;20.67;;;;;;;;;;5032397;28;20026;-77
2022/11/14 08:00:28;;;;;;;46.22;20.67;;;;;;;;;;4983520;28;20381;-77
2022/11/14 08:02:54;;;;;;;46.45;20.75;;;;;;;;;;5012538;28;20060;-77
2022/11/14 08:05:20;;;;;;;46.63;19.88;;;;;;;;;;5012649;28;20049;-76
2022/11/14 08:07:46;;;;;;;44.53;20.67;;;;;;;;;;5022909;28;20552;-76
2022/11/14 08:10:13;;;;;;;48.35;21.40;;;;;;;;;;5017774;28;20298;-76
2022/11/14 08:12:39;;;;;;;47.03;20.67;;;;;;;;;;4994874;28;20080;-76
2022/11/14 08:15:06;;;;;;;48.15;19.23;;;;;;;;;;4994619;28;20427;-76
2022/11/14 08:17:33;;;;;;;51.40;21.23;;;;;;;;;;5012221;28;20030;-76
2022/11/14 08:19:59;;;;;;;54.65;21.05;;;;;;;;;;5012365;28;20508;-77
2022/11/14 08:22:25;;;;;;;45.17;19.88;;;;;;;;;;5012669;28;20036;-76
2022/11/14 08:24:51;;;;;;;44.78;19.70;;;;;;;;;;4995299;28;20034;-76
2022/11/14 08:27:17;;;;;;;47.25;20.23;;;;;;;;;;5012391;28;20033;-77
2022/11/14 08:29:43;;;;;;;49.30;20.20;;;;;;;;;;4994632;28;20382;-77
2022/11/14 08:32:09;;;;;;;50.42;19.10;;;;;;;;;;5014161;28;20029;-76
2022/11/14 08:34:35;;;;;;;43.63;19.10;;;;;;;;;;5032004;28;20028;-77
2022/11/14 08:37:02;;;;;;;43.38;18.98;;;;;;;;;;4997900;28;20091;-76
2022/11/14 08:39:28;;;;;;;37.17;18.13;;;;;;;;;;5014205;28;20030;-77
2022/11/14 08:41:54;;;;;;;42.42;18.83;;;;;;;;;;5032872;28;20034;-76
2022/11/14 08:44:20;;;;;;;42.25;18.05;;;;;;;;;;5035943;28;20049;-78
2022/11/14 08:46:46;;;;;;;34.50;17.45;;;;;;;;;;5031886;28;20030;-76
2022/11/14 08:49:12;;;;;;;37.35;17.52;;;;;;;;;;5024984;28;20037;-76
2022/11/14 08:51:38;;;;;;;41.10;18.45;;;;;;;;;;5018517;28;20037;-77
2022/11/14 08:54:04;;;;;;;39.63;17.55;;;;;;;;;;5016335;28;20029;-77
2022/11/14 08:56:30;;;;;;;37.45;16.35;;;;;;;;;;5016109;28;20029;-77
2022/11/14 08:58:56;;;;;;;35.45;16.70;;;;;;;;;;5018814;28;20026;-77
2022/11/14 09:01:22;;;;;;;36.45;17.05;;;;;;;;;;5035758;28;20030;-77
2022/11/14 09:03:49;;;;;;;35.67;16.88;;;;;;;;;;5032249;28;20393;-79
2022/11/14 09:06:15;;;;;;;32.25;16.50;;;;;;;;;;5035747;28;20053;-77
2022/11/14 09:08:41;;;;;;;33.65;15.85;;;;;;;;;;5035769;28;20032;-77
2022/11/14 09:11:07;;;;;;;33.80;16.23;;;;;;;;;;5018154;28;20080;-77
2022/11/14 09:13:34;;;;;;;31.00;15.32;;;;;;;;;;5035436;28;20025;-85
2022/11/14 09:16:00;;;;;;;29.65;15.52;;;;;;;;;;5017567;28;20021;-77
2022/11/14 09:18:26;;;;;;;29.67;15.10;;;;;;;;;;5017547;28;20120;-77
2022/11/14 09:20:52;;;;;;;32.40;15.07;;;;;;;;;;5001457;28;20029;-77
2022/11/14 09:23:18;;;;;;;32.35;15.10;;;;;;;;;;5035073;28;20087;-77
2022/11/14 09:25:44;;;;;;;32.10;15.52;;;;;;;;;;5035342;28;20097;-77
2022/11/14 09:28:10;;;;;;;29.58;14.18;;;;;;;;;;5035081;28;20033;-77
2022/11/14 09:30:36;;;;;;;28.70;14.55;;;;;;;;;;5009902;28;20022;-77
2022/11/14 09:33:03;;;;;;;25.95;13.82;;;;;;;;;;4997744;28;20076;-77
2022/11/14 09:35:30;;;;;;;26.08;14.02;;;;;;;;;;4999131;28;20030;-77
2022/11/14 09:38:01;;;;;;;26.40;14.10;;;;;;;;;;5017101;28;20406;-77
2022/11/14 09:40:27;;;;;;;28.67;13.65;;;;;;;;;;5034846;28;20032;-77
2022/11/14 09:42:53;;;;;;;26.83;13.02;;;;;;;;;;5006805;28;20431;-77
2022/11/14 09:45:19;;;;;;;23.50;13.15;;;;;;;;;;5034840;28;20045;-78
2022/11/14 09:47:50;;;;;;;23.42;12.25;;;;;;;;;;5016885;28;20033;-77
2022/11/14 09:50:18;;;;;;;25.40;12.35;;;;;;;;;;5034872;28;20431;-77
2022/11/14 09:52:46;;;;;;;25.30;12.88;;;;;;;;;;5034307;28;20443;-77
2022/11/14 09:55:22;;;;;;;29.08;13.10;;;;;;;;;;5016859;28;20037;-77
2022/11/14 09:57:49;;;;;;;22.98;12.02;;;;;;;;;;5016812;28;20029;-77
2022/11/14 10:00:25;;;;;;;21.13;11.48;;;;;;;;;;5021989;28;20052;-77
2022/11/14 10:02:54;;;;;;;21.95;11.48;;;;;;;;;;5034344;28;20430;-77
2022/11/14 10:05:39;;;;;;;19.80;11.48;;;;;;;;;;5016194;28;20030;-77
2022/11/14 10:08:20;;;;;;;21.10;11.05;;;;;;;;;;5034505;28;20026;-77
2022/11/14 10:10:46;;;;;;;21.58;11.35;;;;;;;;;;5034359;28;20405;-77
2022/11/14 10:13:31;;;;;;;19.38;10.95;;;;;;;;;;5034318;28;20057;-77
2022/11/14 10:16:12;;;;;;;20.98;11.27;;;;;;;;;;5034401;28;20036;-77
2022/11/14 10:18:47;;;;;;;23.42;11.43;;;;;;;;;;5016501;28;20026;-77
2022/11/14 10:21:28;;;;;;;22.85;10.55;;;;;;;;;;5034162;28;20100;-77
2022/11/14 10:24:02;;;;;;;23.58;11.18;;;;;;;;;;5034184;28;20029;-78
2022/11/14 10:26:33;;;;;;;19.73;10.82;;;;;;;;;;5016492;28;20124;-77
2022/11/14 10:29:02;;;;;;;19.85;11.55;;;;;;;;;;5034038;28;20018;-77
2022/11/14 10:31:28;;;;;;;21.85;11.27;;;;;;;;;;5039727;28;20021;-77
2022/11/14 10:34:00;;;;;;;26.38;11.80;;;;;;;;;;5038695;28;20745;-79
2022/11/14 10:36:26;;;;;;;20.05;11.82;;;;;;;;;;5026059;28;20017;-78
2022/11/14 10:39:01;;;;;;;22.80;11.55;;;;;;;;;;5049806;28;20082;-79
2022/11/14 10:41:28;;;;;;;23.52;12.02;;;;;;;;;;5034248;28;20053;-79
2022/11/14 10:43:55;;;;;;;23.45;12.23;;;;;;;;;;5013965;28;20494;-78
2022/11/14 10:46:34;;;;;;;25.15;12.00;;;;;;;;;;5023375;28;20037;-78
2022/11/14 10:49:00;;;;;;;25.45;11.95;;;;;;;;;;5023576;28;20025;-78
2022/11/14 10:51:32;;;;;;;25.50;12.18;;;;;;;;;;5034208;28;20032;-78
2022/11/14 10:54:10;;;;;;;23.45;12.93;;;;;;;;;;5033432;28;20033;-78
2022/11/14 10:56:46;;;;;;;24.30;13.13;;;;;;;;;;5032426;28;20422;-78
2022/11/14 10:59:12;;;;;;;22.40;12.10;;;;;;;;;;5033084;28;20021;-77
2022/11/14 11:01:43;;;;;;;24.83;13.18;;;;;;;;;;5032845;28;20502;-78
2022/11/14 11:04:27;;;;;;;24.40;13.50;;;;;;;;;;5032033;28;20033;-78
2022/11/14 11:06:57;;;;;;;22.58;13.27;;;;;;;;;;5032733;28;20037;-78
2022/11/14 11:12:14;;;;;;;25.05;14.07;;;;;;;;;;5032613;28;20124;-79
2022/11/14 11:14:41;;;;;;;22.75;13.00;;;;;;;;;;5011992;28;20033;-79
2022/11/14 11:17:21;;;;;;;25.75;13.77;;;;;;;;;;5032908;28;20018;-79
2022/11/14 11:19:47;;;;;;;26.00;13.85;;;;;;;;;;5027946;28;20022;-79
2022/11/14 11:22:24;;;;;;;23.30;13.73;;;;;;;;;;5020983;28;20025;-78
2022/11/14 11:24:50;;;;;;;25.40;14.20;;;;;;;;;;5012584;28;20068;-79
2022/11/14 11:27:34;;;;;;;30.45;13.73;;;;;;;;;;5012913;28;20065;-79
2022/11/14 11:30:03;;;;;;;26.90;14.20;;;;;;;;;;5012617;28;20026;-79
2022/11/14 11:32:30;;;;;;;26.98;13.73;;;;;;;;;;5012928;28;20085;-79
2022/11/14 11:34:57;;;;;;;27.15;13.43;;;;;;;;;;5015577;28;20408;-79
2022/11/14 11:37:38;;;;;;;30.10;14.13;;;;;;;;;;5032905;28;20139;-79
2022/11/14 11:40:06;;;;;;;26.25;13.77;;;;;;;;;;5021964;28;20088;-79
2022/11/14 11:42:35;;;;;;;25.85;12.88;;;;;;;;;;5027355;28;20029;-79
2022/11/14 11:45:01;;;;;;;25.05;13.25;;;;;;;;;;5032246;28;20049;-79
2022/11/14 11:47:30;;;;;;;25.13;13.65;;;;;;;;;;5001861;28;20042;-79
2022/11/14 11:49:56;;;;;;;24.17;13.43;;;;;;;;;;5018185;28;20032;-79
2022/11/14 11:52:22;;;;;;;21.13;13.35;;;;;;;;;;5013335;28;20022;-79
2022/11/14 11:55:07;;;;;;;24.95;13.85;;;;;;;;;;5012888;28;20041;-78
2022/11/14 11:57:59;;;;;;;27.05;13.48;;;;;;;;;;5026107;28;20102;-79
2022/11/14 12:00:25;;;;;;;25.45;13.98;;;;;;;;;;5010775;28;20172;-79
2022/11/14 12:02:52;;;;;;;26.65;14.98;;;;;;;;;;5012864;28;20788;-78
2022/11/14 12:05:25;;;;;;;28.98;16.00;;;;;;;;;;5018373;28;20104;-78
2022/11/14 12:07:54;;;;;;;31.80;17.77;;;;;;;;;;5004899;28;20176;-78
2022/11/14 12:10:23;;;;;;;29.77;16.95;;;;;;;;;;5014965;28;20029;-79
2022/11/14 12:13:19;;;;;;;31.08;16.95;;;;;;;;;;5032722;28;20017;-78
2022/11/14 12:15:54;;;;;;;30.63;17.83;;;;;;;;;;5022673;28;20692;-79
2022/11/14 12:18:50;;;;;;;31.10;18.40;;;;;;;;;;5019053;28;20337;-78
2022/11/14 12:21:40;;;;;;;32.90;17.88;;;;;;;;;;5012060;28;20484;-79
2022/11/14 12:24:06;;;;;;;32.05;18.45;;;;;;;;;;5005487;28;20097;-78
2022/11/14 12:26:57;;;;;;;32.15;18.00;;;;;;;;;;5036553;28;20079;-78
2022/11/14 12:29:23;;;;;;;33.88;18.40;;;;;;;;;;5036479;28;20479;-78
2022/11/14 12:31:51;;;;;;;32.95;19.52;;;;;;;;;;5030044;28;20029;-78
2022/11/14 12:34:24;;;;;;;35.13;20.13;;;;;;;;;;5025718;28;20479;-78
2022/11/14 12:36:50;;;;;;;34.25;19.40;;;;;;;;;;5049819;28;20024;-78
2022/11/14 12:39:22;;;;;;;33.92;20.00;;;;;;;;;;5032961;28;20030;-78
2022/11/14 12:41:48;;;;;;;32.78;19.80;;;;;;;;;;5035667;28;20029;-79
2022/11/14 12:44:18;;;;;;;33.30;17.88;;;;;;;;;;5035992;28;20083;-79
2022/11/14 12:47:03;;;;;;;34.17;18.33;;;;;;;;;;5023910;28;20045;-79
2022/11/14 12:49:47;;;;;;;33.92;19.17;;;;;;;;;;5036166;28;20492;-79
2022/11/14 12:52:32;;;;;;;35.75;19.08;;;;;;;;;;5036213;28;20025;-79
2022/11/14 12:54:58;;;;;;;36.75;19.88;;;;;;;;;;5036063;28;20040;-79
2022/11/14 12:57:47;;;;;;;39.50;21.65;;;;;;;;;;5036277;28;20024;-79
2022/11/14 13:00:13;;;;;;;37.58;20.90;;;;;;;;;;5036092;28;20379;-78
2022/11/14 13:02:56;;;;;;;38.00;20.40;;;;;;;;;;5035914;28;20029;-78
2022/11/14 13:05:31;;;;;;;40.95;20.55;;;;;;;;;;5035614;28;20041;-79
2022/11/14 13:08:06;;;;;;;38.25;19.75;;;;;;;;;;5036029;28;20032;-78
2022/11/14 13:10:39;;;;;;;37.70;19.25;;;;;;;;;;5035589;28;20030;-78
2022/11/14 13:24:11;;;;;;;33.42;17.50;;;;;;;;;;5015318;28;20052;-77
2022/11/14 13:26:38;;;;;;;38.20;18.98;;;;;;;;;;5014793;28;20026;-78
2022/11/14 13:29:04;;;;;;;34.00;17.20;;;;;;;;;;4997850;28;20026;-77
2022/11/14 13:31:36;;;;;;;38.95;18.33;;;;;;;;;;5030335;28;20087;-76
2022/11/14 13:34:21;;;;;;;32.25;17.48;;;;;;;;;;5005969;28;20649;-78
2022/11/14 13:36:53;;;;;;;35.08;17.52;;;;;;;;;;5015365;28;20028;-78
2022/11/14 13:39:26;;;;;;;31.48;16.92;;;;;;;;;;5015109;28;20033;-78
2022/11/14 13:41:52;;;;;;;;;;;;;;;;;;5011487;28;20029;-77
2022/11/14 13:44:36;;;;;;;36.88;18.25;;;;;;;;;;5034760;28;19917;-77
2022/11/14 13:47:21;;;;;;;37.83;17.92;;;;;;;;;;5035133;28;20075;-78
2022/11/14 13:49:53;;;;;;;37.78;18.27;;;;;;;;;;5034684;28;20112;-77
2022/11/14 13:52:19;;;;;;;40.00;20.23;;;;;;;;;;5003814;28;20038;-76
2022/11/14 13:54:46;;;;;;;34.25;18.13;;;;;;;;;;5023692;28;20498;-76
2022/11/14 13:57:18;;;;;;;39.22;19.75;;;;;;;;;;5015035;28;20530;-77
2022/11/14 14:00:05;;;;;;;38.60;19.58;;;;;;;;;;5023489;28;20033;-77
2022/11/14 14:02:50;;;;;;;38.67;19.40;;;;;;;;;;5025664;28;20029;-76
2022/11/14 14:05:35;;;;;;;42.03;19.88;;;;;;;;;;5027116;28;20029;-77
2022/11/14 14:08:06;;;;;;;40.15;18.67;;;;;;;;;;5009855;28;20021;-77
2022/11/14 14:10:42;;;;;;;41.80;20.00;;;;;;;;;;5029251;28;20387;-77
2022/11/14 14:13:20;;;;;;;39.28;19.15;;;;;;;;;;5030909;28;20029;-77
2022/11/14 14:15:51;;;;;;;43.40;21.27;;;;;;;;;;5034115;28;20398;-77
2022/11/14 14:18:17;;;;;;;40.88;19.35;;;;;;;;;;5032288;28;20099;-76
2022/11/14 14:20:58;;;;;;;42.83;20.20;;;;;;;;;;5021727;28;20026;-76
2022/11/14 14:23:43;;;;;;;41.80;20.40;;;;;;;;;;4998366;28;20487;-77
2022/11/14 14:26:18;;;;;;;35.58;19.15;;;;;;;;;;5014927;28;20345;-77
2022/11/14 14:28:47;;;;;;;38.00;19.67;;;;;;;;;;5022565;28;20379;-77
2022/11/14 14:31:22;;;;;;;41.22;20.08;;;;;;;;;;5034227;28;20025;-77
2022/11/14 14:33:52;;;;;;;41.38;20.95;;;;;;;;;;5031820;28;20029;-77
2022/11/14 14:36:18;;;;;;;35.80;20.40;;;;;;;;;;5023351;28;20021;-77
2022/11/14 14:38:44;;;;;;;45.17;21.73;;;;;;;;;;5013541;28;20495;-77